createdAt,value
2018-11-13T00:00:50.841Z,10.03
2018-11-13T00:03:19.085Z,12.00
2018-11-13T00:05:47.336Z,10.87
2018-11-13T00:08:15.597Z,10.17
2018-11-13T00:10:43.848Z,11.60
2018-11-13T00:13:12.082Z,9.93
2018-11-13T00:15:40.328Z,11.60
2018-11-13T00:18:08.584Z,11.20
2018-11-13T00:20:36.828Z,11.47
2018-11-13T00:23:05.256Z,10.00
2018-11-13T00:25:33.464Z,10.27
2018-11-13T00:28:01.738Z,10.37
2018-11-13T00:30:30.000Z,12.30
2018-11-13T00:32:58.268Z,9.90
2018-11-13T00:35:26.513Z,10.50
2018-11-13T00:37:54.723Z,10.77
2018-11-13T00:40:22.955Z,10.33
2018-11-13T00:42:51.199Z,9.90
2018-11-13T00:45:19.560Z,10.00
2018-11-13T00:47:47.789Z,9.77
2018-11-13T00:50:17.233Z,10.13
2018-11-13T00:52:45.993Z,10.40
2018-11-13T00:55:14.428Z,9.60
2018-11-13T00:57:42.655Z,10.03
2018-11-13T01:00:13.740Z,9.13
2018-11-13T01:02:41.968Z,9.87
2018-11-13T01:05:11.866Z,9.87
2018-11-13T01:07:40.250Z,11.43
2018-11-13T01:10:09.680Z,9.40
2018-11-13T01:12:38.027Z,10.77
2018-11-13T01:15:07.303Z,9.90
2018-11-13T01:17:35.501Z,12.03
2018-11-13T01:20:03.779Z,10.23
2018-11-13T01:22:32.073Z,10.90
2018-11-13T01:25:00.280Z,10.30
2018-11-13T01:27:28.568Z,10.90
2018-11-13T01:29:57.746Z,9.93
2018-11-13T01:32:28.353Z,11.20
2018-11-13T01:34:56.623Z,10.40
2018-11-13T01:37:25.504Z,10.53
2018-11-13T01:39:54.126Z,11.40
2018-11-13T01:42:22.368Z,11.40
2018-11-13T01:44:50.590Z,10.17
2018-11-13T01:47:18.828Z,11.27
2018-11-13T01:49:47.068Z,10.60
2018-11-13T01:52:15.280Z,10.20
2018-11-13T01:54:43.536Z,10.30
2018-11-13T01:57:11.997Z,12.03
2018-11-13T01:59:40.030Z,10.57
2018-11-13T02:02:08.237Z,10.73
2018-11-13T02:04:36.472Z,10.20
2018-11-13T02:07:04.737Z,12.57
2018-11-13T02:09:32.976Z,11.20
2018-11-13T02:12:01.211Z,9.67
2018-11-13T02:14:29.449Z,12.30
2018-11-13T02:16:57.656Z,10.30
2018-11-13T02:19:25.920Z,10.50
2018-11-13T02:21:54.193Z,11.93
2018-11-13T02:24:22.464Z,11.57
2018-11-13T02:26:50.725Z,11.30
2018-11-13T02:29:18.927Z,12.03
2018-11-13T02:31:47.150Z,12.27
2018-11-13T02:34:21.764Z,12.80
2018-11-13T02:36:49.984Z,12.00
2018-11-13T02:39:18.253Z,12.73
2018-11-13T02:41:46.476Z,12.67
2018-11-13T02:44:14.708Z,12.13
2018-11-13T02:46:42.930Z,12.27
2018-11-13T02:49:11.185Z,11.60
2018-11-13T02:51:39.402Z,13.27
2018-11-13T02:54:07.633Z,13.37
2018-11-13T02:56:35.907Z,13.60
2018-11-13T02:59:04.220Z,12.50
2018-11-13T03:01:32.452Z,13.33
2018-11-13T03:04:00.695Z,13.30
2018-11-13T03:06:28.951Z,14.43
2018-11-13T03:08:57.200Z,13.10
2018-11-13T03:11:25.458Z,13.30
2018-11-13T03:13:53.730Z,15.03
2018-11-13T03:16:21.940Z,13.70
2018-11-13T03:18:50.207Z,13.10
2018-11-13T03:21:18.421Z,13.63
2018-11-13T03:23:46.624Z,14.53
2018-11-13T03:26:14.911Z,15.77
2018-11-13T03:28:43.187Z,14.00
2018-11-13T03:31:11.512Z,15.20
2018-11-13T03:33:39.614Z,14.93
2018-11-13T03:36:07.885Z,15.10
2018-11-13T03:38:36.116Z,13.37
2018-11-13T03:41:04.364Z,14.40
2018-11-13T03:43:32.611Z,17.07
2018-11-13T03:46:00.856Z,16.43
2018-11-13T03:48:29.104Z,16.30
2018-11-13T03:50:57.305Z,15.80
2018-11-13T03:53:25.537Z,16.30
2018-11-13T03:55:53.777Z,16.50
2018-11-13T03:58:22.031Z,18.23
2018-11-13T04:00:50.253Z,17.97
2018-11-13T04:03:18.475Z,18.37
2018-11-13T04:05:46.692Z,18.83
2018-11-13T04:08:14.932Z,17.83
2018-11-13T04:10:43.144Z,18.17
2018-11-13T04:13:11.364Z,19.63
2018-11-13T04:15:39.572Z,21.20
2018-11-13T04:18:07.918Z,20.13
2018-11-13T04:20:36.061Z,18.47
2018-11-13T04:23:04.293Z,18.77
2018-11-13T04:25:32.536Z,19.50
2018-11-13T04:28:01.004Z,18.57
2018-11-13T04:30:29.313Z,20.53
2018-11-13T04:32:57.486Z,18.60
2018-11-13T04:35:25.751Z,20.70
2018-11-13T04:37:54.081Z,18.07
2018-11-13T04:40:22.307Z,20.70
2018-11-13T04:42:52.490Z,21.10
2018-11-13T04:45:22.060Z,20.27
2018-11-13T04:47:50.702Z,19.87
2018-11-13T04:50:19.854Z,20.03
2018-11-13T04:52:48.084Z,22.20
2018-11-13T04:55:16.630Z,19.73
2018-11-13T04:57:45.620Z,20.67
2018-11-13T05:00:16.338Z,20.67
2018-11-13T05:02:45.320Z,20.23
2018-11-13T05:05:14.459Z,21.63
2018-11-13T05:07:45.309Z,21.63
2018-11-13T05:10:13.644Z,22.50
2018-11-13T05:12:42.958Z,22.17
2018-11-13T05:15:11.208Z,20.77
2018-11-13T05:17:40.269Z,20.70
2018-11-13T05:20:09.023Z,20.23
2018-11-13T05:22:37.320Z,20.87
2018-11-13T05:25:07.407Z,20.87
2018-11-13T05:27:35.629Z,20.80
2018-11-13T05:30:04.014Z,20.30
2018-11-13T05:32:32.289Z,19.33
2018-11-13T05:35:00.533Z,19.00
2018-11-13T05:37:28.761Z,19.17
2018-11-13T05:39:56.992Z,19.10
2018-11-13T05:42:25.231Z,18.47
2018-11-13T05:44:53.936Z,20.33
2018-11-13T05:47:22.260Z,18.43
2018-11-13T05:49:51.381Z,16.90
2018-11-13T05:52:19.606Z,16.10
2018-11-13T05:54:47.832Z,18.70
2018-11-13T05:57:16.443Z,17.63
2018-11-13T05:59:44.716Z,17.80
2018-11-13T06:02:13.034Z,16.33
2018-11-13T06:04:41.275Z,17.63
2018-11-13T06:07:09.512Z,17.60
2018-11-13T06:09:37.751Z,16.80
2018-11-13T06:12:05.982Z,18.20
2018-11-13T06:14:34.217Z,19.63
2018-11-13T06:17:02.438Z,17.80
2018-11-13T06:19:31.587Z,18.27
2018-11-13T06:21:59.792Z,16.53
2018-11-13T06:24:28.057Z,16.47
2018-11-13T06:26:56.317Z,18.03
2018-11-13T06:29:24.761Z,17.27
2018-11-13T06:31:52.988Z,17.33
2018-11-13T06:34:21.212Z,16.07
2018-11-13T06:36:49.449Z,17.30
2018-11-13T06:39:17.701Z,16.57
2018-11-13T06:41:45.926Z,16.37
2018-11-13T06:44:14.143Z,16.60
2018-11-13T06:46:42.378Z,16.63
2018-11-13T06:49:10.793Z,16.10
2018-11-13T06:51:39.033Z,15.93
2018-11-13T06:54:18.552Z,15.77
2018-11-13T06:56:46.780Z,16.30
2018-11-13T06:59:15.095Z,15.63
2018-11-13T07:01:43.310Z,14.63
2018-11-13T07:04:11.553Z,16.60
2018-11-13T07:06:39.803Z,15.37
2018-11-13T07:09:08.572Z,15.30
2018-11-13T07:11:36.821Z,16.00
2018-11-13T07:14:05.112Z,15.80
2018-11-13T07:16:33.432Z,14.93
2018-11-13T07:19:01.692Z,13.77
2018-11-13T07:21:29.965Z,15.60
2018-11-13T07:23:58.244Z,14.23
2018-11-13T07:26:26.500Z,14.47
2018-11-13T07:28:54.715Z,13.90
2018-11-13T07:31:22.983Z,14.70
2018-11-13T07:33:51.239Z,14.97
2018-11-13T07:36:19.899Z,14.37
2018-11-13T07:38:48.117Z,12.90
2018-11-13T07:41:16.430Z,13.57
2018-11-13T07:43:44.639Z,13.23
2018-11-13T07:46:12.865Z,11.70
2018-11-13T07:48:41.123Z,12.13
2018-11-13T07:51:09.369Z,9.70
2018-11-13T07:53:37.666Z,10.93
2018-11-13T07:56:05.925Z,8.17
2018-11-13T07:58:34.228Z,8.07
2018-11-13T08:01:02.449Z,7.57
2018-11-13T08:03:39.238Z,6.97
2018-11-13T08:06:07.574Z,7.23
2018-11-13T08:08:35.740Z,6.40
2018-11-13T08:11:04.735Z,5.93
2018-11-13T08:13:33.740Z,6.30
2018-11-13T08:16:01.941Z,5.17
2018-11-13T08:18:30.380Z,5.77
2018-11-13T08:20:58.560Z,4.23
2018-11-13T08:23:27.486Z,5.30
2018-11-13T08:25:55.776Z,3.40
2018-11-13T08:28:24.111Z,3.97
2018-11-13T08:30:52.298Z,3.30
2018-11-13T08:33:20.541Z,3.67
2018-11-13T08:35:48.851Z,2.40
2018-11-13T08:38:17.015Z,3.43
2018-11-13T08:40:45.236Z,2.93
2018-11-13T08:43:13.451Z,2.57
2018-11-13T08:45:41.704Z,2.50
2018-11-13T08:48:09.964Z,2.10
2018-11-13T08:50:38.352Z,2.37
2018-11-13T08:53:06.427Z,1.83
2018-11-13T08:55:34.632Z,2.60
2018-11-13T08:58:02.887Z,2.60
2018-11-13T09:00:31.120Z,2.00
2018-11-13T09:02:59.344Z,2.03
2018-11-13T09:05:27.554Z,2.10
2018-11-13T09:07:55.833Z,1.83
2018-11-13T09:10:24.048Z,3.20
2018-11-13T09:12:52.264Z,2.67
2018-11-13T09:15:21.244Z,3.00
2018-11-13T09:17:49.480Z,2.67
2018-11-13T09:20:18.876Z,2.40
2018-11-13T09:22:47.163Z,2.60
2018-11-13T09:25:16.547Z,2.43
2018-11-13T09:27:44.830Z,2.93
2018-11-13T09:30:14.942Z,2.73
2018-11-13T09:32:43.457Z,2.17
2018-11-13T09:35:12.885Z,2.10
2018-11-13T09:37:41.397Z,1.80
2018-11-13T09:40:12.655Z,2.00
2018-11-13T09:42:41.505Z,2.50
2018-11-13T09:45:10.396Z,2.43
2018-11-13T09:47:38.907Z,1.83
2018-11-13T09:50:09.168Z,2.10
2018-11-13T09:52:37.574Z,1.97
2018-11-13T09:55:07.025Z,2.17
2018-11-13T09:57:35.304Z,2.30
2018-11-13T10:00:04.110Z,2.10
2018-11-13T10:02:32.707Z,1.70
2018-11-13T10:05:01.264Z,2.47
2018-11-13T10:07:28.753Z,1.80
2018-11-13T10:09:57.009Z,2.53
2018-11-13T10:12:25.207Z,1.73
2018-11-13T10:14:53.453Z,2.20
2018-11-13T10:17:21.738Z,2.17
2018-11-13T10:19:49.928Z,2.17
2018-11-13T10:22:18.139Z,2.10
2018-11-13T10:24:46.355Z,2.03
2018-11-13T10:27:14.582Z,2.23
2018-11-13T10:29:42.825Z,2.47
2018-11-13T10:32:11.036Z,1.97
2018-11-13T10:34:39.275Z,2.00
2018-11-13T10:37:07.507Z,1.77
2018-11-13T10:39:35.724Z,1.77
2018-11-13T10:42:03.965Z,1.67
2018-11-13T10:44:32.173Z,1.80
2018-11-13T10:47:00.425Z,1.87
2018-11-13T10:49:28.704Z,2.10
2018-11-13T10:51:56.926Z,1.60
2018-11-13T10:54:25.160Z,1.50
2018-11-13T10:56:53.382Z,2.10
2018-11-13T10:59:21.689Z,2.00
2018-11-13T11:01:55.492Z,2.50
2018-11-13T11:04:29.146Z,2.67
2018-11-13T11:06:57.401Z,2.63
2018-11-13T11:09:25.621Z,2.93
2018-11-13T11:11:53.841Z,2.47
2018-11-13T11:14:22.076Z,2.60
2018-11-13T11:16:50.332Z,2.13
2018-11-13T11:19:18.597Z,2.30
2018-11-13T11:21:47.683Z,3.00
2018-11-13T11:24:15.984Z,2.67
2018-11-13T11:26:44.178Z,3.20
2018-11-13T11:29:12.416Z,2.27
2018-11-13T11:31:40.652Z,2.80
2018-11-13T11:34:08.893Z,2.80
2018-11-13T11:36:37.118Z,3.47
2018-11-13T11:39:08.097Z,2.27
2018-11-13T11:41:36.406Z,3.53
2018-11-13T11:44:05.085Z,2.13
2018-11-13T11:46:33.348Z,2.40
2018-11-13T11:49:01.941Z,2.90
2018-11-13T11:51:30.176Z,3.20
2018-11-13T11:53:58.428Z,2.83
2018-11-13T11:56:26.637Z,3.10
2018-11-13T11:58:54.855Z,3.43
2018-11-13T12:01:23.135Z,2.10
2018-11-13T12:03:51.368Z,3.50
2018-11-13T12:06:19.593Z,2.87
2018-11-13T12:08:47.814Z,2.50
2018-11-13T12:11:16.047Z,2.77
2018-11-13T12:13:44.305Z,2.60
2018-11-13T12:16:12.561Z,3.17
2018-11-13T12:18:40.813Z,3.17
2018-11-13T12:21:09.047Z,3.57
2018-11-13T12:23:37.829Z,4.17
2018-11-13T12:26:06.173Z,2.40
2018-11-13T12:28:34.436Z,2.20
2018-11-13T12:31:02.596Z,3.10
2018-11-13T12:33:30.838Z,2.20
2018-11-13T12:36:00.077Z,2.00
2018-11-13T12:38:28.304Z,3.10
2018-11-13T12:40:56.593Z,2.63
2018-11-13T12:43:24.765Z,2.60
2018-11-13T12:45:52.999Z,2.53
2018-11-13T12:48:21.233Z,3.40
2018-11-13T12:50:54.812Z,2.20
2018-11-13T12:53:23.104Z,2.50
2018-11-13T12:55:52.742Z,2.67
2018-11-13T12:58:20.910Z,3.27
2018-11-13T13:00:49.148Z,2.13
2018-11-13T13:03:17.369Z,2.27
2018-11-13T13:05:45.646Z,2.60
2018-11-13T13:08:13.949Z,3.00
2018-11-13T13:10:42.180Z,3.03
2018-11-13T13:13:10.405Z,2.63
2018-11-13T13:15:39.445Z,2.77
2018-11-13T13:18:07.681Z,3.07
2018-11-13T13:20:35.891Z,3.00
2018-11-13T13:23:04.129Z,2.80
2018-11-13T13:25:32.419Z,3.33
2018-11-13T13:28:00.631Z,2.30
2018-11-13T13:30:28.848Z,2.73
2018-11-13T13:32:57.133Z,2.53
2018-11-13T13:36:01.886Z,2.47
2018-11-13T13:38:30.881Z,3.07
2018-11-13T13:41:00.177Z,3.27
2018-11-13T13:43:29.200Z,3.33
2018-11-13T13:45:57.480Z,3.37
2018-11-13T13:48:25.825Z,3.10
2018-11-13T13:50:54.130Z,3.37
2018-11-13T13:53:23.075Z,2.57
2018-11-13T13:55:51.460Z,3.00
2018-11-13T13:58:21.397Z,3.10
2018-11-13T14:00:49.927Z,2.63
2018-11-13T14:03:18.034Z,3.30
2018-11-13T14:05:46.761Z,2.87
2018-11-13T14:08:15.561Z,2.40
2018-11-13T14:10:43.819Z,3.00
2018-11-13T14:13:12.285Z,2.50
2018-11-13T14:15:40.544Z,3.20
2018-11-13T14:18:08.912Z,3.40
2018-11-13T14:20:37.185Z,2.90
2018-11-13T14:23:05.576Z,3.43
2018-11-13T14:25:33.818Z,3.13
2018-11-13T14:28:02.036Z,2.40
2018-11-13T14:30:32.319Z,2.97
2018-11-13T14:33:04.672Z,2.27
2018-11-13T14:35:33.027Z,3.27
2018-11-13T14:38:01.621Z,2.80
2018-11-13T14:40:32.452Z,3.67
2018-11-13T14:43:01.345Z,3.60
2018-11-13T14:45:29.799Z,3.70
2018-11-13T14:47:58.148Z,3.00
2018-11-13T14:50:27.666Z,2.43
2018-11-13T14:52:56.037Z,3.80
2018-11-13T14:55:26.251Z,3.27
2018-11-13T14:57:54.821Z,3.30
2018-11-13T15:00:28.248Z,3.47
2018-11-13T15:02:56.999Z,3.97
2018-11-13T15:05:26.274Z,2.70
2018-11-13T15:07:55.872Z,2.43
2018-11-13T15:10:36.228Z,3.30
2018-11-13T15:13:04.636Z,3.73
2018-11-13T15:15:32.862Z,2.97
2018-11-13T15:18:01.084Z,2.70
2018-11-13T15:20:29.303Z,3.40
2018-11-13T15:22:57.555Z,2.93
2018-11-13T15:25:25.884Z,3.57
2018-11-13T15:27:54.137Z,3.63
2018-11-13T15:30:24.140Z,3.43
2018-11-13T15:32:55.492Z,3.00
2018-11-13T15:35:23.740Z,3.30
2018-11-13T15:37:51.967Z,3.07
2018-11-13T15:40:22.207Z,3.77
2018-11-13T15:42:50.436Z,2.93
2018-11-13T15:45:19.212Z,3.30
2018-11-13T15:47:48.095Z,2.53
2018-11-13T15:50:18.861Z,4.07
2018-11-13T15:52:48.002Z,2.67
2018-11-13T15:55:16.591Z,2.20
2018-11-13T15:57:45.339Z,2.90
2018-11-13T16:00:22.672Z,3.33
2018-11-13T16:02:51.079Z,3.93
2018-11-13T16:05:40.418Z,4.30
2018-11-13T16:08:09.244Z,3.00
2018-11-13T16:10:37.499Z,4.07
2018-11-13T16:13:06.101Z,3.47
2018-11-13T16:15:34.320Z,2.90
2018-11-13T16:18:04.064Z,2.97
2018-11-13T16:20:32.295Z,3.33
2018-11-13T16:23:00.532Z,2.87
2018-11-13T16:25:28.837Z,2.57
2018-11-13T16:27:57.067Z,2.80
2018-11-13T16:30:28.506Z,3.60
2018-11-13T16:32:56.668Z,4.87
2018-11-13T16:35:25.952Z,2.60
2018-11-13T16:37:55.132Z,3.07
2018-11-13T16:40:24.519Z,3.60
2018-11-13T16:42:52.738Z,2.97
2018-11-13T16:45:22.255Z,3.33
2018-11-13T16:47:50.651Z,3.03
2018-11-13T16:50:25.508Z,3.00
2018-11-13T16:52:53.815Z,3.10
2018-11-13T16:55:27.485Z,2.63
2018-11-13T16:57:56.350Z,3.10
2018-11-13T17:00:24.900Z,7.17
2018-11-13T17:02:53.058Z,3.07
2018-11-13T17:05:22.176Z,3.73
2018-11-13T17:07:50.398Z,3.17
2018-11-13T17:10:20.091Z,4.77
2018-11-13T17:12:48.636Z,3.37
2018-11-13T17:15:18.149Z,4.33
2018-11-13T17:17:47.392Z,4.40
2018-11-13T17:20:15.900Z,4.97
2018-11-13T17:22:44.460Z,4.60
2018-11-13T17:25:13.944Z,4.87
2018-11-13T17:27:43.196Z,4.23
2018-11-13T17:30:19.407Z,4.37
2018-11-13T17:32:47.298Z,3.83
2018-11-13T17:35:16.829Z,3.87
2018-11-13T17:37:45.582Z,4.47
2018-11-13T17:40:15.860Z,3.20
2018-11-13T17:42:44.776Z,4.37
2018-11-13T17:45:15.277Z,3.90
2018-11-13T17:47:43.705Z,3.90
2018-11-13T17:50:15.924Z,5.23
2018-11-13T17:52:45.081Z,3.63
2018-11-13T17:55:14.184Z,4.13
2018-11-13T17:57:43.335Z,4.00
2018-11-13T18:00:14.417Z,4.43
2018-11-13T18:02:43.710Z,4.23
2018-11-13T18:05:12.102Z,4.10
2018-11-13T18:07:40.418Z,3.80
2018-11-13T18:10:08.647Z,3.60
2018-11-13T18:12:37.316Z,4.90
2018-11-13T18:15:07.477Z,3.90
2018-11-13T18:17:35.697Z,4.20
2018-11-13T18:20:05.213Z,4.10
2018-11-13T18:22:33.523Z,5.30
2018-11-13T18:25:01.799Z,3.80
2018-11-13T18:27:30.042Z,4.40
2018-11-13T18:30:05.049Z,3.60
2018-11-13T18:32:33.305Z,4.87
2018-11-13T18:35:01.540Z,4.17
2018-11-13T18:37:29.797Z,3.90
2018-11-13T18:39:58.000Z,4.27
2018-11-13T18:42:26.255Z,3.53
2018-11-13T18:44:54.572Z,3.70
2018-11-13T18:47:22.808Z,4.40
2018-11-13T18:49:51.371Z,4.47
2018-11-13T18:52:19.319Z,4.40
2018-11-13T18:54:47.552Z,4.13
2018-11-13T18:57:16.024Z,3.60
2018-11-13T18:59:44.258Z,4.50
2018-11-13T19:02:12.562Z,4.30
2018-11-13T19:04:41.012Z,4.20
2018-11-13T19:07:09.268Z,5.30
2018-11-13T19:09:37.501Z,4.60
2018-11-13T19:12:06.185Z,4.57
2018-11-13T19:14:34.316Z,5.07
2018-11-13T19:17:02.646Z,4.53
2018-11-13T19:19:30.882Z,7.00
2018-11-13T19:21:59.145Z,4.87
2018-11-13T19:24:27.505Z,4.33
2018-11-13T19:26:55.759Z,4.23
2018-11-13T19:29:24.049Z,4.62
2018-11-13T19:31:52.297Z,4.90
2018-11-13T19:37:17.826Z,4.72
2018-11-13T19:39:46.093Z,4.53
2018-11-13T19:42:14.827Z,4.90
2018-11-13T19:44:43.145Z,5.10
2018-11-13T19:47:11.333Z,4.33
2018-11-13T19:49:39.611Z,5.23
2018-11-13T19:52:07.824Z,5.00
2018-11-13T19:54:36.138Z,4.70
2018-11-13T19:57:04.419Z,5.00
2018-11-13T19:59:32.730Z,4.00
2018-11-13T20:02:01.013Z,4.70
2018-11-13T20:04:29.388Z,4.93
2018-11-13T20:06:57.732Z,4.42
2018-11-13T20:09:26.032Z,6.70
2018-11-13T20:11:54.281Z,6.10
2018-11-13T20:14:22.569Z,4.65
2018-11-13T20:16:50.841Z,5.47
2018-11-13T20:19:19.094Z,4.47
2018-11-13T20:21:47.987Z,5.13
2018-11-13T20:24:18.939Z,4.40
2018-11-13T20:26:47.402Z,4.57
2018-11-13T20:29:15.621Z,4.70
2018-11-13T20:31:43.880Z,5.53
2018-11-13T20:34:12.141Z,4.37
2018-11-13T20:36:40.462Z,5.10
2018-11-13T20:39:10.599Z,5.13
2018-11-13T20:41:38.888Z,5.20
2018-11-13T20:44:07.240Z,5.40
2018-11-13T20:46:35.467Z,5.10
2018-11-13T20:49:03.798Z,5.70
2018-11-13T20:51:32.141Z,4.90
2018-11-13T20:54:00.314Z,4.70
2018-11-13T20:56:28.532Z,5.60
2018-11-13T20:58:56.812Z,5.00
2018-11-13T21:01:25.121Z,5.13
2018-11-13T21:03:53.339Z,5.47
2018-11-13T21:06:21.612Z,5.10
2018-11-13T21:08:49.866Z,5.20
2018-11-13T21:11:18.121Z,7.33
2018-11-13T21:13:46.368Z,5.90
2018-11-13T21:16:14.681Z,4.57
2018-11-13T21:18:43.035Z,5.80
2018-11-13T21:21:11.309Z,5.43
2018-11-13T21:23:39.651Z,5.83
2018-11-13T21:26:07.941Z,6.40
2018-11-13T21:28:36.156Z,5.73
2018-11-13T21:31:04.405Z,6.30
2018-11-13T21:33:32.690Z,5.43
2018-11-13T21:36:00.952Z,6.10
2018-11-13T21:38:29.189Z,5.50
2018-11-13T21:40:57.517Z,6.87
2018-11-13T21:43:25.893Z,5.70
2018-11-13T21:45:54.254Z,6.37
2018-11-13T21:48:22.861Z,6.33
2018-11-13T21:50:51.536Z,6.50
2018-11-13T21:53:20.901Z,5.60
2018-11-13T21:55:49.176Z,6.40
2018-11-13T21:58:17.890Z,5.83
2018-11-13T22:00:47.986Z,5.50
2018-11-13T22:03:16.227Z,6.60
2018-11-13T22:05:44.597Z,8.20
2018-11-13T22:08:12.825Z,5.97
2018-11-13T22:10:41.081Z,7.20
2018-11-13T22:13:09.929Z,6.27
2018-11-13T22:15:38.136Z,7.20
2018-11-13T22:18:06.421Z,6.97
2018-11-13T22:20:34.679Z,7.10
2018-11-13T22:23:03.089Z,7.30
2018-11-13T22:25:31.385Z,6.73
2018-11-13T22:27:59.911Z,6.50
2018-11-13T22:30:29.327Z,6.03
2018-11-13T22:32:57.539Z,6.80
2018-11-13T22:35:25.783Z,6.53
2018-11-13T22:37:54.011Z,7.53
2018-11-13T22:40:24.549Z,8.70
2018-11-13T22:42:52.759Z,7.00
2018-11-13T22:45:23.028Z,7.40
2018-11-13T22:47:51.615Z,7.73
2018-11-13T22:50:24.160Z,6.43
2018-11-13T22:52:52.677Z,8.33
2018-11-13T22:55:20.985Z,7.03
2018-11-13T22:57:50.103Z,7.00
2018-11-13T23:00:20.256Z,7.60
2018-11-13T23:02:49.946Z,7.47
2018-11-13T23:05:18.176Z,7.63
2018-11-13T23:07:46.379Z,8.93
2018-11-13T23:10:15.255Z,7.63
2018-11-13T23:12:43.951Z,8.40
2018-11-13T23:15:14.738Z,7.77
2018-11-13T23:17:43.456Z,9.80
2018-11-13T23:20:13.083Z,8.20
2018-11-13T23:22:41.300Z,8.63
2018-11-13T23:25:11.315Z,7.97
2018-11-13T23:27:39.581Z,8.07
2018-11-13T23:30:10.754Z,8.10
2018-11-13T23:32:39.009Z,8.93
2018-11-13T23:35:07.907Z,8.00
2018-11-13T23:37:36.197Z,8.83
2018-11-13T23:40:04.904Z,6.93
2018-11-13T23:42:33.121Z,7.80
2018-11-13T23:45:01.368Z,8.20
2018-11-13T23:47:29.645Z,7.83
2018-11-13T23:49:58.279Z,8.30
2018-11-13T23:52:26.146Z,8.00
2018-11-13T23:54:54.389Z,7.40
2018-11-13T23:57:22.720Z,7.43
2018-11-13T23:59:51.427Z,7.73
